createdAt,value
2022-12-23T00:01:51.581Z,100107.41
2022-12-23T00:04:18.700Z,100107.13
2022-12-23T00:06:45.783Z,100110.81
2022-12-23T00:09:12.824Z,100106.88
2022-12-23T00:11:59.830Z,100112.13
2022-12-23T00:14:45.217Z,100103.72
2022-12-23T00:17:21.989Z,100107.94
2022-12-23T00:19:49.869Z,100116.59
2022-12-23T00:22:16.890Z,100111.59
2022-12-23T00:24:44.149Z,100108.19
2022-12-23T00:27:11.190Z,100111.34
2022-12-23T00:29:38.212Z,100105.81
2022-12-23T00:32:05.278Z,100112.91
2022-12-23T00:34:32.445Z,100118.16
2022-12-23T00:36:59.461Z,100115.81
2022-12-23T00:39:45.159Z,100128.94
2022-12-23T00:42:30.494Z,100124.19
2022-12-23T00:45:15.350Z,100130.25
2022-12-23T00:48:02.499Z,100125.00
2022-12-23T00:50:30.215Z,100129.19
2022-12-23T00:52:57.563Z,100134.44
2022-12-23T00:55:24.874Z,100139.94
2022-12-23T00:57:51.898Z,100141.53
2022-12-23T01:00:19.715Z,100143.66
2022-12-23T01:03:05.091Z,100147.06
2022-12-23T01:05:37.759Z,100151.25
2022-12-23T01:08:09.757Z,100146.78
2022-12-23T01:10:39.555Z,100146.78
2022-12-23T01:13:07.562Z,100149.69
2022-12-23T01:15:34.614Z,100156.22
2022-12-23T01:18:01.653Z,100162.03
2022-12-23T01:20:28.756Z,100157.81
2022-12-23T01:22:55.747Z,100159.38
2022-12-23T01:25:22.768Z,100153.88
2022-12-23T01:27:49.773Z,100170.16
2022-12-23T01:30:16.961Z,100170.69
2022-12-23T01:32:44.001Z,100169.63
2022-12-23T01:35:11.023Z,100164.13
2022-12-23T01:37:38.025Z,100170.16
2022-12-23T01:40:05.688Z,100170.94
2022-12-23T01:42:44.447Z,100180.13
2022-12-23T01:45:20.857Z,100182.47
2022-12-23T01:48:10.009Z,100174.38
2022-12-23T01:50:57.358Z,100183.28
2022-12-23T01:53:45.260Z,100179.84
2022-12-23T01:56:19.795Z,100180.63
2022-12-23T01:58:52.187Z,100181.69
2022-12-23T02:01:38.080Z,100185.09
2022-12-23T02:04:08.934Z,100178.28
2022-12-23T02:06:58.190Z,100187.50
2022-12-23T02:09:29.017Z,100186.16
2022-12-23T02:12:17.590Z,100190.34
2022-12-23T02:15:25.902Z,100193.25
2022-12-23T02:18:21.063Z,100202.66
2022-12-23T02:21:13.068Z,100199.03
2022-12-23T02:23:58.212Z,100207.41
2022-12-23T02:26:55.894Z,100202.94
2022-12-23T02:29:55.523Z,100217.63
2022-12-23T02:32:45.005Z,100227.34
2022-12-23T02:35:49.634Z,100232.59
2022-12-23T02:38:34.242Z,100228.41
2022-12-23T02:41:26.734Z,100235.22
2022-12-23T02:44:03.975Z,100236.28
2022-12-23T02:46:47.195Z,100234.16
2022-12-23T02:49:28.139Z,100237.56
2022-12-23T02:52:01.648Z,100234.16
2022-12-23T02:54:34.779Z,100242.59
2022-12-23T02:57:05.853Z,100238.63
2022-12-23T02:59:40.607Z,100243.66
2022-12-23T03:02:07.783Z,100256.78
2022-12-23T03:04:34.915Z,100247.84
2022-12-23T03:07:07.492Z,100257.81
2022-12-23T03:10:03.658Z,100263.59
2022-12-23T03:12:39.647Z,100274.09
2022-12-23T03:15:18.486Z,100274.09
2022-12-23T03:18:05.399Z,100279.34
2022-12-23T03:20:52.634Z,100280.13
2022-12-23T03:23:19.650Z,100280.91
2022-12-23T03:25:59.700Z,100275.13
2022-12-23T03:28:42.142Z,100268.31
2022-12-23T03:31:15.589Z,100267.53
2022-12-23T03:33:51.300Z,100274.13
2022-12-23T03:36:24.608Z,100271.50
2022-12-23T03:38:55.805Z,100263.06
2022-12-23T03:41:36.913Z,100258.84
2022-12-23T03:44:21.509Z,100262.56
2022-12-23T03:47:02.678Z,100259.38
2022-12-23T03:49:40.138Z,100263.06
2022-12-23T03:52:21.733Z,100262.00
2022-12-23T03:54:59.083Z,100264.13
2022-12-23T03:57:41.628Z,100263.84
2022-12-23T04:00:09.476Z,100268.06
2022-12-23T04:02:53.475Z,100269.88
2022-12-23T04:05:27.264Z,100268.88
2022-12-23T04:08:03.359Z,100267.25
2022-12-23T04:10:31.765Z,100273.56
2022-12-23T04:12:59.023Z,100272.50
2022-12-23T04:15:27.839Z,100272.50
2022-12-23T04:17:56.990Z,100269.09
2022-12-23T04:20:24.604Z,100273.84
2022-12-23T04:22:51.633Z,100278.81
2022-12-23T04:25:19.559Z,100273.56
2022-12-23T04:27:46.675Z,100285.63
2022-12-23T04:30:14.099Z,100289.31
2022-12-23T04:32:42.385Z,100290.88
2022-12-23T04:35:10.976Z,100291.44
2022-12-23T04:37:39.273Z,100300.09
2022-12-23T04:40:07.263Z,100291.44
2022-12-23T04:42:34.779Z,100295.63
2022-12-23T04:45:02.124Z,100299.56
2022-12-23T04:47:29.198Z,100296.41
2022-12-23T04:49:56.350Z,100302.47
2022-12-23T04:52:23.777Z,100304.56
2022-12-23T04:54:50.846Z,100307.19
2022-12-23T04:57:18.019Z,100310.34
2022-12-23T04:59:45.066Z,100312.97
2022-12-23T05:02:12.468Z,100314.53
2022-12-23T05:04:39.758Z,100313.50
2022-12-23T05:07:06.854Z,100314.53
2022-12-23T05:09:33.861Z,100307.72
2022-12-23T05:12:00.874Z,100303.50
2022-12-23T05:14:27.910Z,100294.06
2022-12-23T05:16:55.016Z,100300.63
2022-12-23T05:19:22.098Z,100287.47
2022-12-23T05:21:49.151Z,100291.69
2022-12-23T05:24:16.151Z,100291.94
2022-12-23T05:26:47.698Z,100293.28
2022-12-23T05:29:15.969Z,100292.50
2022-12-23T05:31:43.132Z,100288.25
2022-12-23T05:34:10.312Z,100295.63
2022-12-23T05:36:37.350Z,100303.50
2022-12-23T05:39:04.451Z,100302.19
2022-12-23T05:41:31.461Z,100317.94
2022-12-23T05:43:58.474Z,100323.47
2022-12-23T05:46:27.175Z,100327.41
2022-12-23T05:48:54.485Z,100335.00
2022-12-23T05:51:21.498Z,100341.31
2022-12-23T05:53:48.504Z,100337.13
2022-12-23T05:56:15.512Z,100339.19
2022-12-23T05:58:42.573Z,100343.91
2022-12-23T06:01:09.562Z,100338.13
2022-12-23T06:03:36.733Z,100349.66
2022-12-23T06:06:03.995Z,100342.34
2022-12-23T06:08:31.054Z,100348.09
2022-12-23T06:10:59.696Z,100359.38
2022-12-23T06:13:26.704Z,100346.50
2022-12-23T06:15:53.750Z,100354.13
2022-12-23T06:18:20.774Z,100338.38
2022-12-23T06:20:48.512Z,100338.13
2022-12-23T06:23:15.555Z,100341.56
2022-12-23T06:25:42.588Z,100340.25
2022-12-23T06:28:09.618Z,100327.88
2022-12-23T06:30:36.692Z,100332.63
2022-12-23T06:33:03.745Z,100335.00
2022-12-23T06:35:30.797Z,100333.69
2022-12-23T06:37:57.856Z,100336.03
2022-12-23T06:40:24.880Z,100335.50
2022-12-23T06:42:51.982Z,100341.56
2022-12-23T06:45:19.016Z,100326.59
2022-12-23T06:47:46.018Z,100323.69
2022-12-23T06:50:13.071Z,100324.22
2022-12-23T06:52:40.111Z,100338.13
2022-12-23T06:55:07.458Z,100326.59
2022-12-23T06:57:34.454Z,100337.09
2022-12-23T07:00:01.597Z,100340.19
2022-12-23T07:02:28.752Z,100330.44
2022-12-23T07:04:55.831Z,100329.13
2022-12-23T07:07:22.838Z,100355.38
2022-12-23T07:09:49.863Z,100367.97
2022-12-23T07:12:16.907Z,100367.44
2022-12-23T07:14:43.908Z,100370.34
2022-12-23T07:17:10.996Z,100387.41
2022-12-23T07:19:38.158Z,100396.34
2022-12-23T07:22:05.299Z,100402.66
2022-12-23T07:24:37.206Z,100413.69
2022-12-23T07:27:04.466Z,100425.25
2022-12-23T07:29:31.496Z,100429.47
2022-12-23T07:31:58.619Z,100415.28
2022-12-23T07:34:25.665Z,100411.09
2022-12-23T07:36:52.723Z,100410.03
2022-12-23T07:39:20.605Z,100405.31
2022-12-23T07:41:47.634Z,100401.34
2022-12-23T07:44:14.768Z,100390.06
2022-12-23T07:46:42.032Z,100398.72
2022-12-23T07:49:09.572Z,100391.09
2022-12-23T07:51:36.611Z,100394.25
2022-12-23T07:54:03.793Z,100389.00
2022-12-23T07:56:30.801Z,100387.44
2022-12-23T07:58:58.250Z,100387.44
2022-12-23T08:01:25.301Z,100385.34
2022-12-23T08:03:52.435Z,100384.56
2022-12-23T08:06:19.677Z,100381.94
2022-12-23T08:08:47.257Z,100384.84
2022-12-23T08:11:15.654Z,100393.25
2022-12-23T08:13:45.062Z,100391.44
2022-12-23T08:16:12.740Z,100387.97
2022-12-23T08:18:41.487Z,100379.28
2022-12-23T08:21:17.872Z,100386.94
2022-12-23T08:23:47.285Z,100387.19
2022-12-23T08:26:21.840Z,100378.31
2022-12-23T08:28:53.194Z,100370.94
2022-12-23T08:31:24.132Z,100383.03
2022-12-23T08:33:54.513Z,100391.44
2022-12-23T08:36:31.113Z,100380.38
2022-12-23T08:39:01.255Z,100379.59
2022-12-23T08:41:31.729Z,100384.34
2022-12-23T08:43:59.371Z,100385.13
2022-12-23T08:46:27.495Z,100388.84
2022-12-23T08:48:55.513Z,100375.72
2022-12-23T08:51:25.018Z,100384.09
2022-12-23T08:54:00.183Z,100372.25
2022-12-23T08:56:31.850Z,100371.47
2022-12-23T08:58:58.988Z,100364.66
2022-12-23T09:01:29.657Z,100361.25
2022-12-23T09:03:57.172Z,100374.09
2022-12-23T09:06:29.820Z,100367.56
2022-12-23T09:08:58.649Z,100374.94
2022-12-23T09:11:28.561Z,100368.63
2022-12-23T09:13:58.060Z,100374.97
2022-12-23T09:16:25.235Z,100366.31
2022-12-23T09:18:52.340Z,100363.97
2022-12-23T09:21:22.579Z,100363.94
2022-12-23T09:23:51.687Z,100362.13
2022-12-23T09:26:23.207Z,100352.38
2022-12-23T09:28:50.518Z,100344.78
2022-12-23T09:31:18.593Z,100338.47
2022-12-23T09:33:53.117Z,100339.75
2022-12-23T09:36:21.908Z,100345.59
2022-12-23T09:38:54.667Z,100337.16
2022-12-23T09:42:01.188Z,100347.44
2022-12-23T09:45:05.367Z,100353.94
2022-12-23T09:47:34.646Z,100348.16
2022-12-23T09:50:16.389Z,100333.72
2022-12-23T09:52:59.295Z,100328.47
2022-12-23T09:55:37.770Z,100321.41
2022-12-23T09:58:31.907Z,100315.94
2022-12-23T10:01:29.979Z,100311.94
2022-12-23T10:04:09.280Z,100314.88
2022-12-23T10:06:39.933Z,100313.53
2022-12-23T10:09:10.058Z,100302.53
2022-12-23T10:11:44.779Z,100284.94
2022-12-23T10:14:18.712Z,100288.84
2022-12-23T10:17:12.141Z,100278.38
2022-12-23T10:19:47.053Z,100266.81
2022-12-23T10:22:26.057Z,100274.69
2022-12-23T10:24:57.571Z,100266.81
2022-12-23T10:27:30.577Z,100268.88
2022-12-23T10:30:33.762Z,100267.03
2022-12-23T10:33:20.511Z,100268.38
2022-12-23T10:36:15.191Z,100271.28
2022-12-23T10:39:11.634Z,100283.91
2022-12-23T10:41:52.624Z,100277.84
2022-12-23T10:44:28.643Z,100261.59
2022-12-23T10:47:17.118Z,100254.47
2022-12-23T10:50:21.433Z,100238.19
2022-12-23T10:52:51.755Z,100237.69
2022-12-23T10:55:31.312Z,100229.53
2022-12-23T10:58:14.467Z,100222.97
2022-12-23T11:00:49.164Z,100223.75
2022-12-23T11:03:33.773Z,100231.16
2022-12-23T11:06:02.002Z,100222.75
2022-12-23T11:08:31.992Z,100216.16
2022-12-23T11:11:01.255Z,100213.53
2022-12-23T11:13:43.310Z,100200.63
2022-12-23T11:16:18.229Z,100208.03
2022-12-23T11:19:04.064Z,100195.13
2022-12-23T11:21:33.252Z,100192.25
2022-12-23T11:24:20.286Z,100193.28
2022-12-23T11:27:03.564Z,100192.78
2022-12-23T11:29:38.547Z,100185.41
2022-12-23T11:32:17.111Z,100168.06
2022-12-23T11:34:47.534Z,100169.13
2022-12-23T11:37:50.577Z,100155.22
2022-12-23T11:40:32.633Z,100139.19
2022-12-23T11:43:04.520Z,100132.09
2022-12-23T11:45:36.536Z,100121.81
2022-12-23T11:48:06.396Z,100112.34
2022-12-23T11:50:36.736Z,100107.09
2022-12-23T11:53:18.664Z,100114.47
2022-12-23T11:56:02.798Z,100111.84
2022-12-23T11:58:36.775Z,100104.53
2022-12-23T12:01:14.916Z,100106.88
2022-12-23T12:03:50.887Z,100104.78
2022-12-23T12:06:20.251Z,100085.63
2022-12-23T12:08:51.521Z,100086.69
2022-12-23T12:11:44.063Z,100081.44
2022-12-23T12:14:41.603Z,100080.88
2022-12-23T12:17:19.930Z,100078.25
2022-12-23T12:20:04.756Z,100074.56
2022-12-23T12:22:41.017Z,100066.19
2022-12-23T12:25:15.649Z,100062.25
2022-12-23T12:27:49.200Z,100059.88
2022-12-23T12:30:20.426Z,100043.63
2022-12-23T12:32:59.162Z,100040.72
2022-12-23T12:35:47.632Z,100034.69
2022-12-23T12:38:20.592Z,100040.44
2022-12-23T12:40:52.397Z,100020.78
2022-12-23T12:43:33.316Z,100018.16
2022-12-23T12:46:06.528Z,100000.06
2022-12-23T12:49:02.221Z,99998.22
2022-12-23T12:51:46.667Z,99984.56
2022-12-23T12:54:39.218Z,99967.22
2022-12-23T12:57:06.753Z,99972.44
2022-12-23T12:59:38.657Z,99961.66
2022-12-23T13:02:34.221Z,99952.38
2022-12-23T13:05:16.088Z,99944.75
2022-12-23T13:08:00.505Z,99952.63
2022-12-23T13:10:46.473Z,99945.03
2022-12-23T13:13:22.640Z,99953.47
2022-12-23T13:16:40.955Z,99951.38
2022-12-23T13:19:23.647Z,99941.16
2022-12-23T13:22:08.369Z,99935.13
2022-12-23T13:24:54.519Z,99919.63
2022-12-23T13:27:34.164Z,99934.88
2022-12-23T13:30:19.088Z,99919.13
2022-12-23T13:32:52.100Z,99909.44
2022-12-23T13:35:38.551Z,99881.34
2022-12-23T13:38:20.789Z,99873.25
2022-12-23T13:41:04.094Z,99858.59
2022-12-23T13:43:57.791Z,99855.69
2022-12-23T13:46:43.706Z,99833.13
2022-12-23T13:49:16.781Z,99830.78
2022-12-23T13:51:57.865Z,99831.31
2022-12-23T13:54:49.420Z,99843.09
2022-12-23T13:57:36.363Z,99855.97
2022-12-23T14:00:16.091Z,99823.19
2022-12-23T14:02:59.864Z,99819.00
2022-12-23T14:05:43.761Z,99807.22
2022-12-23T14:08:20.059Z,99809.84
2022-12-23T14:10:57.272Z,99816.91
2022-12-23T14:13:28.951Z,99808.28
2022-12-23T14:16:35.138Z,99817.72
2022-12-23T14:19:26.182Z,99811.69
2022-12-23T14:22:17.502Z,99810.38
2022-12-23T14:25:02.947Z,99797.03
2022-12-23T14:27:41.419Z,99800.97
2022-12-23T14:30:36.020Z,99786.28
2022-12-23T14:33:14.315Z,99772.38
2022-12-23T14:35:42.874Z,99762.34
2022-12-23T14:38:15.993Z,99744.00
2022-12-23T14:40:42.996Z,99739.31
2022-12-23T14:43:22.138Z,99728.56
2022-12-23T14:45:52.175Z,99723.59
2022-12-23T14:48:34.304Z,99728.03
2022-12-23T14:51:10.129Z,99730.41
2022-12-23T14:53:59.685Z,99729.31
2022-12-23T14:56:38.495Z,99726.19
2022-12-23T14:59:34.566Z,99730.88
2022-12-23T15:02:20.657Z,99731.66
2022-12-23T15:04:52.975Z,99726.69
2022-12-23T15:07:34.536Z,99735.59
2022-12-23T15:10:06.305Z,99740.81
2022-12-23T15:12:34.854Z,99739.50
2022-12-23T15:15:16.193Z,99731.09
2022-12-23T15:17:43.725Z,99735.00
2022-12-23T15:20:10.823Z,99733.94
2022-12-23T15:22:38.966Z,99730.78
2022-12-23T15:25:22.911Z,99730.53
2022-12-23T15:27:59.087Z,99733.13
2022-12-23T15:30:34.195Z,99733.38
2022-12-23T15:33:27.989Z,99731.81
2022-12-23T15:35:55.363Z,99734.19
2022-12-23T15:38:29.575Z,99731.00
2022-12-23T15:41:02.665Z,99737.00
2022-12-23T15:43:30.203Z,99744.34
2022-12-23T15:46:20.781Z,99742.75
2022-12-23T15:48:50.973Z,99749.75
2022-12-23T15:51:50.047Z,99750.81
2022-12-23T15:54:21.195Z,99748.69
2022-12-23T15:56:52.385Z,99755.25
2022-12-23T15:59:32.709Z,99746.03
2022-12-23T16:02:24.960Z,99760.19
2022-12-23T16:05:02.364Z,99750.78
2022-12-23T16:07:41.395Z,99770.31
2022-12-23T16:10:20.329Z,99763.50
2022-12-23T16:12:51.534Z,99768.25
2022-12-23T16:15:26.204Z,99767.19
2022-12-23T16:18:11.855Z,99770.88
2022-12-23T16:20:46.388Z,99771.34
2022-12-23T16:23:14.171Z,99763.75
2022-12-23T16:25:50.508Z,99761.50
2022-12-23T16:28:23.984Z,99776.19
2022-12-23T16:30:57.695Z,99780.88
2022-12-23T16:33:38.487Z,99790.31
2022-12-23T16:36:25.177Z,99792.38
2022-12-23T16:39:14.062Z,99784.44
2022-12-23T16:41:41.082Z,99792.06
2022-12-23T16:44:08.159Z,99798.59
2022-12-23T16:46:45.426Z,99799.94
2022-12-23T16:49:17.397Z,99793.81
2022-12-23T16:51:45.181Z,99800.94
2022-12-23T16:54:16.455Z,99801.88
2022-12-23T16:56:43.739Z,99810.75
2022-12-23T16:59:10.795Z,99822.06
2022-12-23T17:01:45.309Z,99825.59
2022-12-23T17:04:12.515Z,99830.88
2022-12-23T17:06:40.672Z,99839.03
2022-12-23T17:09:10.130Z,99833.38
2022-12-23T17:11:43.229Z,99837.00
2022-12-23T17:14:23.433Z,99841.59
2022-12-23T17:16:51.355Z,99843.69
2022-12-23T17:19:27.229Z,99847.88
2022-12-23T17:22:02.018Z,99855.16
2022-12-23T17:24:29.685Z,99859.72
2022-12-23T17:26:57.481Z,99867.84
2022-12-23T17:29:24.509Z,99869.41
2022-12-23T17:31:52.762Z,99866.56
2022-12-23T17:34:22.367Z,99878.91
2022-12-23T17:36:50.804Z,99879.91
2022-12-23T17:39:19.269Z,99871.47
2022-12-23T17:41:46.690Z,99875.69
2022-12-23T17:44:15.896Z,99872.44
2022-12-23T17:46:44.350Z,99880.53
2022-12-23T17:49:11.658Z,99877.19
2022-12-23T17:51:40.203Z,99868.78
2022-12-23T17:54:07.381Z,99895.66
2022-12-23T17:56:34.383Z,99905.16
2022-12-23T17:59:01.389Z,99897.53
2022-12-23T18:01:31.605Z,99894.13
2022-12-23T18:03:59.950Z,99883.09
2022-12-23T18:06:28.866Z,99893.63
2022-12-23T18:08:59.457Z,99901.56
2022-12-23T18:11:44.015Z,99914.16
2022-12-23T18:14:17.556Z,99916.25
2022-12-23T18:16:44.679Z,99937.28
2022-12-23T18:19:17.972Z,99926.00
2022-12-23T18:21:45.570Z,99943.91
2022-12-23T18:24:12.844Z,99941.78
2022-12-23T18:26:40.008Z,99933.69
2022-12-23T18:29:07.049Z,99949.47
2022-12-23T18:31:37.218Z,99951.63
2022-12-23T18:34:04.521Z,99953.69
2022-12-23T18:36:33.860Z,99945.81
2022-12-23T18:39:01.072Z,99958.00
2022-12-23T18:41:28.259Z,99956.44
2022-12-23T18:43:55.339Z,99961.09
2022-12-23T18:46:22.682Z,99968.47
2022-12-23T18:48:49.807Z,99954.81
2022-12-23T18:51:19.882Z,99959.13
2022-12-23T18:53:48.380Z,99961.84
2022-12-23T18:56:20.001Z,99974.53
2022-12-23T18:58:47.369Z,99966.81
2022-12-23T19:01:16.303Z,99976.00
2022-12-23T19:03:44.356Z,99976.50
2022-12-23T19:06:15.451Z,99968.38
2022-12-23T19:08:43.269Z,99971.25
2022-12-23T19:11:16.377Z,99970.97
2022-12-23T19:13:44.160Z,99978.03
2022-12-23T19:16:17.246Z,99979.59
2022-12-23T19:18:46.263Z,99984.06
2022-12-23T19:21:13.934Z,99975.66
2022-12-23T19:23:41.897Z,99980.88
2022-12-23T19:26:10.347Z,99988.50
2022-12-23T19:28:39.005Z,99960.88
2022-12-23T19:31:12.018Z,99990.63
2022-12-23T19:33:40.952Z,99985.91
2022-12-23T19:36:13.020Z,99989.03
2022-12-23T19:38:40.498Z,99992.22
2022-12-23T19:41:08.881Z,100005.41
2022-12-23T19:43:38.147Z,100003.31
2022-12-23T19:46:08.484Z,100007.00
2022-12-23T19:48:36.400Z,100011.00
2022-12-23T19:51:12.331Z,100013.66
2022-12-23T19:53:41.638Z,100009.66
2022-12-23T19:56:13.364Z,100015.44
2022-12-23T19:58:43.736Z,100015.97
2022-12-23T20:01:23.963Z,100030.16
2022-12-23T20:03:53.276Z,100036.66
2022-12-23T20:06:30.255Z,100045.63
2022-12-23T20:09:00.938Z,100044.81
2022-12-23T20:11:30.447Z,100049.53
2022-12-23T20:13:58.440Z,100047.13
2022-12-23T20:16:27.145Z,100054.56
2022-12-23T20:18:54.905Z,100059.59
2022-12-23T20:21:22.435Z,100076.47
2022-12-23T20:23:50.265Z,100070.13
2022-12-23T20:26:19.553Z,100080.34
2022-12-23T20:28:46.909Z,100082.78
2022-12-23T20:31:20.552Z,100075.91
2022-12-23T20:33:49.130Z,100085.91
2022-12-23T20:36:20.098Z,100098.06
2022-12-23T20:38:47.986Z,100103.84
2022-12-23T20:41:19.235Z,100104.63
2022-12-23T20:44:02.810Z,100101.19
2022-12-23T20:46:34.049Z,100109.59
2022-12-23T20:49:01.261Z,100122.53
2022-12-23T20:51:28.267Z,100119.41
2022-12-23T20:53:59.892Z,100127.03
2022-12-23T20:56:29.138Z,100130.44
2022-12-23T20:59:02.277Z,100121.22
2022-12-23T21:01:35.051Z,100141.75
2022-12-23T21:04:06.181Z,100148.09
2022-12-23T21:06:34.420Z,100155.47
2022-12-23T21:09:04.815Z,100152.84
2022-12-23T21:11:34.428Z,100157.03
2022-12-23T21:14:06.123Z,100167.28
2022-12-23T21:16:34.692Z,100165.72
2022-12-23T21:19:01.790Z,100179.91
2022-12-23T21:21:31.005Z,100172.78
2022-12-23T21:24:01.746Z,100191.47
2022-12-23T21:26:30.565Z,100188.28
2022-12-23T21:28:59.842Z,100185.38
2022-12-23T21:31:29.479Z,100187.22
2022-12-23T21:33:56.974Z,100190.66
2022-12-23T21:36:30.723Z,100198.25
2022-12-23T21:38:59.183Z,100199.84
2022-12-23T21:41:31.929Z,100214.84
2022-12-23T21:44:00.122Z,100217.47
2022-12-23T21:46:28.899Z,100226.94
2022-12-23T21:48:58.234Z,100220.38
2022-12-23T21:51:34.850Z,100225.66
2022-12-23T21:54:05.919Z,100234.56
2022-12-23T21:56:32.957Z,100230.38
2022-12-23T21:59:13.027Z,100236.41
2022-12-23T22:01:41.359Z,100240.88
2022-12-23T22:04:08.461Z,100236.41
2022-12-23T22:06:38.563Z,100228.28
2022-12-23T22:09:07.406Z,100238.78
2022-12-23T22:11:37.833Z,100246.41
2022-12-23T22:14:07.929Z,100249.56
2022-12-23T22:16:35.775Z,100237.97
2022-12-23T22:19:04.724Z,100258.75
2022-12-23T22:21:33.328Z,100267.44
2022-12-23T22:24:01.827Z,100276.63
2022-12-23T22:26:31.813Z,100271.63
2022-12-23T22:29:01.155Z,100280.59
2022-12-23T22:31:31.068Z,100292.66
2022-12-23T22:33:58.971Z,100280.59
2022-12-23T22:36:26.268Z,100290.03
2022-12-23T22:38:57.121Z,100287.94
2022-12-23T22:41:25.670Z,100293.72
2022-12-23T22:43:52.755Z,100297.66
2022-12-23T22:46:20.109Z,100314.22
2022-12-23T22:48:47.270Z,100318.41
2022-12-23T22:51:17.445Z,100325.28
2022-12-23T22:53:45.472Z,100326.34
2022-12-23T22:56:14.534Z,100320.53
2022-12-23T22:58:42.145Z,100325.78
2022-12-23T23:01:31.295Z,100328.19
2022-12-23T23:04:00.878Z,100325.78
2022-12-23T23:06:31.109Z,100338.94
2022-12-23T23:08:58.420Z,100341.84
2022-12-23T23:11:26.932Z,100342.09
2022-12-23T23:13:54.640Z,100346.31
2022-12-23T23:16:23.281Z,100353.66
2022-12-23T23:18:51.497Z,100364.41
2022-12-23T23:21:19.077Z,100367.59
2022-12-23T23:23:46.132Z,100360.50
2022-12-23T23:26:13.587Z,100370.75
2022-12-23T23:28:41.538Z,100383.09
2022-12-23T23:31:40.633Z,100384.91
2022-12-23T23:33:57.715Z,100379.94
2022-12-23T23:36:25.452Z,100385.97
2022-12-23T23:38:52.498Z,100390.19
2022-12-23T23:41:23.227Z,100395.69
2022-12-23T23:43:51.844Z,100388.31
2022-12-23T23:46:19.315Z,100393.59
2022-12-23T23:48:46.492Z,100404.63
2022-12-23T23:51:13.503Z,100394.38
2022-12-23T23:53:40.720Z,100406.75
2022-12-23T23:56:08.744Z,100397.22
2022-12-23T23:58:37.396Z,100418.31
